createdAt,value
2022-10-17T00:00:42.832Z,24.65
2022-10-17T00:03:10.602Z,18.00
2022-10-17T00:05:40.538Z,20.77
2022-10-17T00:08:08.133Z,27.00
2022-10-17T00:10:36.044Z,21.15
2022-10-17T00:13:03.829Z,22.55
2022-10-17T00:15:33.448Z,23.60
2022-10-17T00:18:01.442Z,22.38
2022-10-17T00:20:30.424Z,21.58
2022-10-17T00:22:58.467Z,21.20
2022-10-17T00:25:26.060Z,18.35
2022-10-17T00:27:53.826Z,19.15
2022-10-17T00:30:21.479Z,19.75
2022-10-17T00:32:50.411Z,20.20
2022-10-17T00:35:18.066Z,22.73
2022-10-17T00:37:45.636Z,20.77
2022-10-17T00:40:13.462Z,18.67
2022-10-17T00:42:41.130Z,16.25
2022-10-17T00:45:14.628Z,20.17
2022-10-17T00:47:42.774Z,19.27
2022-10-17T00:50:12.213Z,18.13
2022-10-17T00:52:39.872Z,18.00
2022-10-17T00:55:10.741Z,17.40
2022-10-17T00:57:38.750Z,17.40
2022-10-17T01:00:08.213Z,18.63
2022-10-17T01:02:35.844Z,17.60
2022-10-17T01:05:03.772Z,16.25
2022-10-17T01:07:36.329Z,14.98
2022-10-17T01:10:05.805Z,15.55
2022-10-17T01:12:39.954Z,14.48
2022-10-17T01:15:11.898Z,18.35
2022-10-17T01:17:44.900Z,16.55
2022-10-17T01:20:36.464Z,14.43
2022-10-17T01:23:14.102Z,18.27
2022-10-17T01:25:47.408Z,14.65
2022-10-17T01:28:20.531Z,15.77
2022-10-17T01:31:06.053Z,12.60
2022-10-17T01:33:44.828Z,14.35
2022-10-17T01:36:13.861Z,14.30
2022-10-17T01:38:45.574Z,16.15
2022-10-17T01:41:17.378Z,15.85
2022-10-17T01:43:48.280Z,14.20
2022-10-17T01:46:20.311Z,14.75
2022-10-17T01:48:49.354Z,16.95
2022-10-17T01:51:19.801Z,15.10
2022-10-17T01:53:51.065Z,17.25
2022-10-17T01:56:20.368Z,14.20
2022-10-17T01:58:50.156Z,17.23
2022-10-17T02:01:18.333Z,15.60
2022-10-17T02:03:46.357Z,15.32
2022-10-17T02:06:15.323Z,15.55
2022-10-17T02:08:44.387Z,13.52
2022-10-17T02:11:15.168Z,12.82
2022-10-17T02:13:50.354Z,15.07
2022-10-17T02:18:54.371Z,12.05
2022-10-17T02:21:26.364Z,12.13
2022-10-17T02:23:56.829Z,13.45
2022-10-17T02:26:27.465Z,15.55
2022-10-17T02:28:59.976Z,15.70
2022-10-17T02:31:30.134Z,15.23
2022-10-17T02:33:59.624Z,18.08
2022-10-17T02:36:31.913Z,14.18
2022-10-17T02:39:00.042Z,14.10
2022-10-17T02:43:58.848Z,13.30
2022-10-17T02:46:30.014Z,12.90
2022-10-17T02:49:00.804Z,12.38
2022-10-17T02:51:30.879Z,13.13
2022-10-17T02:54:01.762Z,15.18
2022-10-17T02:56:31.416Z,16.73
2022-10-17T02:59:00.642Z,14.57
2022-10-17T03:01:28.611Z,14.70
2022-10-17T03:04:05.495Z,12.07
2022-10-17T03:06:34.487Z,15.48
2022-10-17T03:09:02.111Z,16.40
2022-10-17T03:11:29.790Z,14.35
2022-10-17T03:13:57.363Z,14.90
2022-10-17T03:16:25.031Z,14.15
2022-10-17T03:18:52.755Z,18.58
2022-10-17T03:21:20.361Z,18.58
2022-10-17T03:23:49.354Z,13.00
2022-10-17T03:26:16.948Z,15.20
2022-10-17T03:28:44.584Z,16.50
2022-10-17T03:31:14.423Z,13.63
2022-10-17T03:33:42.015Z,15.07
2022-10-17T03:36:10.459Z,12.63
2022-10-17T03:38:38.426Z,11.23
2022-10-17T03:41:07.848Z,13.48
2022-10-17T03:43:35.466Z,11.00
2022-10-17T03:46:03.582Z,13.27
2022-10-17T03:48:31.535Z,12.13
2022-10-17T03:51:00.100Z,14.02
2022-10-17T03:53:28.137Z,13.43
2022-10-17T03:55:55.828Z,15.63
2022-10-17T03:58:24.848Z,16.92
2022-10-17T04:00:52.514Z,14.15
2022-10-17T04:03:20.194Z,11.55
2022-10-17T04:05:47.804Z,11.65
2022-10-17T04:08:15.409Z,19.73
2022-10-17T04:10:45.153Z,15.70
2022-10-17T04:13:12.778Z,10.55
2022-10-17T04:15:41.843Z,14.10
2022-10-17T04:18:09.457Z,14.27
2022-10-17T04:20:37.060Z,13.73
2022-10-17T04:23:04.666Z,12.57
2022-10-17T04:25:34.705Z,9.32
2022-10-17T04:28:04.359Z,14.35
2022-10-17T04:30:32.007Z,11.38
2022-10-17T04:33:01.025Z,11.68
2022-10-17T04:35:28.700Z,14.55
2022-10-17T04:37:56.249Z,12.10
2022-10-17T04:40:23.958Z,11.15
2022-10-17T04:42:52.613Z,11.52
2022-10-17T04:45:20.202Z,9.93
2022-10-17T04:47:47.823Z,9.65
2022-10-17T04:50:16.797Z,13.52
2022-10-17T04:52:44.577Z,8.70
2022-10-17T04:55:12.160Z,11.43
2022-10-17T04:57:39.910Z,17.75
2022-10-17T05:02:42.054Z,11.35
2022-10-17T05:05:09.938Z,12.82
2022-10-17T05:07:41.997Z,12.60
2022-10-17T05:10:10.049Z,10.30
2022-10-17T05:12:37.670Z,9.73
2022-10-17T05:15:05.703Z,11.50
2022-10-17T05:17:33.315Z,11.18
2022-10-17T05:20:01.080Z,10.80
2022-10-17T05:22:28.953Z,13.98
2022-10-17T05:24:58.209Z,11.38
2022-10-17T05:27:25.912Z,15.73
2022-10-17T05:29:53.748Z,12.35
2022-10-17T05:32:21.360Z,13.00
2022-10-17T05:34:49.030Z,13.38
2022-10-17T05:37:16.763Z,14.18
2022-10-17T05:39:47.954Z,17.40
2022-10-17T05:42:20.270Z,13.65
2022-10-17T05:44:47.920Z,15.43
2022-10-17T05:47:15.649Z,8.75
2022-10-17T05:49:49.792Z,13.13
2022-10-17T05:52:19.003Z,14.65
2022-10-17T05:54:46.735Z,11.63
2022-10-17T05:57:14.475Z,12.57
2022-10-17T05:59:43.467Z,12.10
2022-10-17T06:02:13.149Z,11.25
2022-10-17T06:04:45.405Z,11.30
2022-10-17T06:07:13.182Z,13.70
2022-10-17T06:09:40.977Z,11.25
2022-10-17T06:12:08.893Z,12.95
2022-10-17T06:14:36.724Z,13.70
2022-10-17T06:17:05.930Z,15.60
2022-10-17T06:19:33.609Z,12.18
2022-10-17T06:22:01.199Z,17.13
2022-10-17T06:24:29.009Z,12.18
2022-10-17T06:26:57.094Z,10.75
2022-10-17T06:29:24.689Z,15.48
2022-10-17T06:31:52.370Z,15.88
2022-10-17T06:34:21.303Z,11.50
2022-10-17T06:36:49.148Z,9.25
2022-10-17T06:39:16.823Z,7.75
2022-10-17T06:41:44.673Z,7.13
2022-10-17T06:44:12.439Z,6.40
2022-10-17T06:46:42.071Z,7.95
2022-10-17T06:49:10.879Z,6.55
2022-10-17T06:51:39.895Z,7.90
2022-10-17T06:54:07.475Z,9.52
2022-10-17T06:56:35.483Z,7.85
2022-10-17T06:59:03.244Z,11.80
2022-10-17T07:01:31.709Z,8.88
2022-10-17T07:03:59.421Z,9.63
2022-10-17T07:06:27.064Z,10.48
2022-10-17T07:08:56.608Z,11.85
2022-10-17T07:11:25.842Z,11.73
2022-10-17T07:13:54.370Z,10.95
2022-10-17T07:16:22.406Z,10.45
2022-10-17T07:18:50.550Z,9.77
2022-10-17T07:21:18.457Z,10.93
2022-10-17T07:23:46.052Z,10.80
2022-10-17T07:26:16.166Z,10.32
2022-10-17T07:28:44.680Z,9.30
2022-10-17T07:31:20.108Z,10.60
2022-10-17T07:33:48.166Z,11.13
2022-10-17T07:36:15.900Z,10.82
2022-10-17T07:38:43.631Z,7.53
2022-10-17T07:41:16.497Z,7.00
2022-10-17T07:43:48.350Z,7.93
2022-10-17T07:46:16.200Z,10.02
2022-10-17T07:48:43.805Z,6.85
2022-10-17T07:51:11.886Z,7.35
2022-10-17T07:53:42.670Z,8.38
2022-10-17T07:56:13.388Z,7.13
2022-10-17T07:58:41.120Z,8.48
2022-10-17T08:01:15.539Z,8.98
2022-10-17T08:06:11.512Z,11.40
2022-10-17T08:08:41.782Z,5.75
2022-10-17T08:11:10.973Z,7.63
2022-10-17T08:13:38.945Z,7.82
2022-10-17T08:16:08.641Z,8.57
2022-10-17T08:18:38.074Z,12.00
2022-10-17T08:21:06.304Z,8.43
2022-10-17T08:23:33.894Z,8.80
2022-10-17T08:26:01.754Z,7.30
2022-10-17T08:28:29.673Z,6.80
2022-10-17T08:31:03.324Z,7.78
2022-10-17T08:33:30.919Z,10.57
2022-10-17T08:36:00.855Z,10.20
2022-10-17T08:38:32.128Z,9.35
2022-10-17T08:41:04.123Z,14.02
2022-10-17T08:43:52.601Z,10.68
2022-10-17T08:46:20.812Z,14.38
2022-10-17T08:48:49.627Z,8.75
2022-10-17T08:51:21.097Z,7.22
2022-10-17T08:53:50.792Z,10.43
2022-10-17T08:56:25.100Z,10.13
2022-10-17T08:59:11.917Z,8.38
2022-10-17T09:01:43.934Z,8.95
2022-10-17T09:07:03.089Z,10.57
2022-10-17T09:09:34.769Z,9.75
2022-10-17T09:12:12.882Z,9.82
2022-10-17T09:14:55.569Z,9.50
2022-10-17T09:17:30.878Z,8.02
2022-10-17T09:20:03.621Z,8.23
2022-10-17T09:22:35.913Z,11.88
2022-10-17T09:25:05.311Z,8.25
2022-10-17T09:27:35.880Z,9.63
2022-10-17T09:30:21.491Z,9.18
2022-10-17T09:33:23.021Z,9.20
2022-10-17T09:35:59.679Z,12.05
2022-10-17T09:38:31.897Z,11.13
2022-10-17T09:41:01.573Z,10.52
2022-10-17T09:43:29.532Z,12.70
2022-10-17T09:46:00.880Z,10.43
2022-10-17T09:48:31.944Z,12.40
2022-10-17T09:51:21.908Z,12.80
2022-10-17T09:53:51.606Z,19.75
2022-10-17T09:56:20.501Z,11.52
2022-10-17T09:58:49.057Z,9.43
2022-10-17T10:01:21.156Z,11.43
2022-10-17T10:04:10.156Z,9.45
2022-10-17T10:06:38.113Z,9.27
2022-10-17T10:09:07.972Z,13.90
2022-10-17T10:11:48.876Z,13.63
2022-10-17T10:14:21.598Z,12.48
2022-10-17T10:16:49.914Z,14.65
2022-10-17T10:19:21.447Z,12.90
2022-10-17T10:21:56.253Z,11.77
2022-10-17T10:24:30.644Z,9.23
2022-10-17T10:26:59.895Z,13.45
2022-10-17T10:29:31.065Z,11.95
2022-10-17T10:32:08.368Z,10.68
2022-10-17T10:34:36.729Z,9.15
2022-10-17T10:37:05.159Z,9.35
2022-10-17T10:39:39.957Z,8.38
2022-10-17T10:42:09.177Z,8.38
2022-10-17T10:44:39.659Z,11.55
2022-10-17T10:47:16.673Z,8.05
2022-10-17T10:49:44.662Z,8.32
2022-10-17T10:52:15.838Z,12.35
2022-10-17T10:54:46.580Z,9.40
2022-10-17T10:57:19.994Z,8.07
2022-10-17T10:59:52.709Z,9.50
2022-10-17T11:02:23.298Z,8.50
2022-10-17T11:04:57.174Z,9.10
2022-10-17T11:07:27.371Z,10.32
2022-10-17T11:10:01.502Z,10.38
2022-10-17T11:12:31.617Z,10.98
2022-10-17T11:15:01.722Z,12.35
2022-10-17T11:17:33.635Z,11.15
2022-10-17T11:20:04.723Z,10.32
2022-10-17T11:22:33.521Z,8.77
2022-10-17T11:25:05.898Z,12.70
2022-10-17T11:27:35.132Z,11.52
2022-10-17T11:30:03.803Z,8.98
2022-10-17T11:32:34.771Z,10.93
2022-10-17T11:35:04.381Z,9.02
2022-10-17T11:37:34.420Z,10.70
2022-10-17T11:40:04.410Z,10.02
2022-10-17T11:42:33.907Z,10.52
2022-10-17T11:45:04.762Z,6.22
2022-10-17T11:47:35.655Z,9.65
2022-10-17T11:52:56.784Z,6.28
2022-10-17T11:55:27.227Z,5.88
2022-10-17T11:58:04.387Z,5.85
2022-10-17T12:00:40.864Z,6.20
2022-10-17T12:03:17.365Z,5.38
2022-10-17T12:05:50.150Z,10.10
2022-10-17T12:08:22.100Z,8.80
2022-10-17T12:10:55.251Z,5.18
2022-10-17T12:13:41.909Z,6.50
2022-10-17T12:16:28.347Z,4.90
2022-10-17T12:19:10.811Z,6.65
2022-10-17T12:21:53.245Z,8.02
2022-10-17T12:24:25.844Z,7.60
2022-10-17T12:26:56.486Z,7.25
2022-10-17T12:29:27.784Z,8.57
2022-10-17T12:31:55.419Z,4.82
2022-10-17T12:34:24.013Z,6.30
2022-10-17T12:36:51.605Z,5.75
2022-10-17T12:39:54.884Z,6.28
2022-10-17T12:42:47.142Z,7.30
2022-10-17T12:45:33.528Z,8.95
2022-10-17T12:48:01.165Z,7.53
2022-10-17T12:50:47.710Z,6.40
2022-10-17T12:53:18.561Z,7.10
2022-10-17T12:55:47.827Z,5.10
2022-10-17T12:58:17.572Z,7.15
2022-10-17T13:01:05.314Z,5.88
2022-10-17T13:03:41.410Z,8.18
2022-10-17T13:06:09.287Z,3.63
2022-10-17T13:08:38.526Z,4.05
2022-10-17T13:11:06.677Z,4.45
2022-10-17T13:13:39.152Z,11.32
2022-10-17T13:16:06.938Z,6.68
2022-10-17T13:18:35.046Z,5.05
2022-10-17T13:21:06.798Z,6.43
2022-10-17T13:23:35.743Z,5.43
2022-10-17T13:26:07.753Z,6.32
2022-10-17T13:28:39.145Z,7.55
2022-10-17T13:31:08.741Z,5.75
2022-10-17T13:33:39.045Z,4.30
2022-10-17T13:36:08.596Z,6.47
2022-10-17T13:38:40.320Z,8.13
2022-10-17T13:41:34.366Z,6.63
2022-10-17T13:44:00.637Z,5.75
2022-10-17T13:46:39.156Z,8.80
2022-10-17T13:49:12.491Z,4.60
2022-10-17T13:51:43.359Z,6.78
2022-10-17T13:54:18.500Z,6.38
2022-10-17T13:56:46.308Z,4.75
2022-10-17T13:59:21.306Z,5.90
2022-10-17T14:01:52.194Z,5.57
2022-10-17T14:04:20.535Z,5.10
2022-10-17T14:06:51.181Z,5.95
2022-10-17T14:09:22.209Z,6.80
2022-10-17T14:11:58.020Z,6.72
2022-10-17T14:14:26.171Z,8.95
2022-10-17T14:16:55.390Z,6.05
2022-10-17T14:19:25.786Z,5.43
2022-10-17T14:21:54.621Z,6.47
2022-10-17T14:24:31.587Z,8.48
2022-10-17T14:27:00.211Z,4.70
2022-10-17T14:29:28.861Z,7.13
2022-10-17T14:32:05.326Z,8.20
2022-10-17T14:34:35.527Z,4.78
2022-10-17T14:37:03.558Z,6.47
2022-10-17T14:39:31.226Z,8.50
2022-10-17T14:42:04.102Z,6.03
2022-10-17T14:44:33.509Z,5.63
2022-10-17T14:47:18.193Z,7.57
2022-10-17T14:49:52.162Z,5.18
2022-10-17T14:52:28.034Z,5.30
2022-10-17T14:54:56.408Z,6.97
2022-10-17T14:57:26.115Z,6.13
2022-10-17T14:59:55.603Z,8.77
2022-10-17T15:02:23.578Z,6.05
2022-10-17T15:04:52.808Z,6.93
2022-10-17T15:07:21.500Z,6.53
2022-10-17T15:09:50.151Z,6.22
2022-10-17T15:12:18.933Z,6.45
2022-10-17T15:14:47.942Z,6.22
2022-10-17T15:17:16.561Z,6.50
2022-10-17T15:19:44.222Z,5.70
2022-10-17T15:22:13.167Z,5.53
2022-10-17T15:24:40.827Z,5.88
2022-10-17T15:27:08.710Z,10.38
2022-10-17T15:29:36.329Z,8.32
2022-10-17T15:32:04.045Z,11.82
2022-10-17T15:34:31.647Z,9.52
2022-10-17T15:36:59.614Z,9.70
2022-10-17T15:39:28.561Z,7.50
2022-10-17T15:41:56.224Z,12.20
2022-10-17T15:44:23.819Z,14.15
2022-10-17T15:46:51.638Z,15.50
2022-10-17T15:49:19.809Z,11.50
2022-10-17T15:51:51.656Z,8.15
2022-10-17T15:54:22.026Z,10.05
2022-10-17T15:56:53.765Z,10.20
2022-10-17T15:59:23.299Z,7.28
2022-10-17T16:01:50.937Z,6.40
2022-10-17T16:04:18.974Z,6.88
2022-10-17T16:06:46.654Z,5.80
2022-10-17T16:09:14.329Z,10.18
2022-10-17T16:11:43.586Z,8.18
2022-10-17T16:14:13.574Z,6.18
2022-10-17T16:16:41.467Z,12.23
2022-10-17T16:19:09.311Z,5.28
2022-10-17T16:21:38.256Z,5.57
2022-10-17T16:24:06.073Z,7.20
2022-10-17T16:26:33.683Z,10.98
2022-10-17T16:29:03.071Z,9.27
2022-10-17T16:31:35.063Z,7.30
2022-10-17T16:34:03.416Z,8.45
2022-10-17T16:36:31.582Z,5.68
2022-10-17T16:38:59.213Z,4.93
2022-10-17T16:41:29.079Z,6.53
2022-10-17T16:43:58.832Z,6.55
2022-10-17T16:46:27.178Z,7.00
2022-10-17T16:48:56.232Z,7.72
2022-10-17T16:51:24.060Z,12.23
2022-10-17T16:53:54.289Z,6.15
2022-10-17T16:56:22.986Z,8.55
2022-10-17T16:58:51.265Z,11.95
2022-10-17T17:01:19.959Z,8.20
2022-10-17T17:03:48.205Z,9.05
2022-10-17T17:06:19.103Z,8.00
2022-10-17T17:08:46.810Z,9.20
2022-10-17T17:11:17.186Z,10.63
2022-10-17T17:13:45.029Z,9.13
2022-10-17T17:16:13.499Z,10.75
2022-10-17T17:18:41.217Z,10.93
2022-10-17T17:21:10.157Z,12.68
2022-10-17T17:23:40.256Z,10.55
2022-10-17T17:26:08.901Z,12.38
2022-10-17T17:28:36.905Z,10.85
2022-10-17T17:31:07.531Z,8.98
2022-10-17T17:33:35.296Z,10.98
2022-10-17T17:36:03.287Z,11.48
2022-10-17T17:38:31.573Z,10.13
2022-10-17T17:41:00.843Z,9.60
2022-10-17T17:43:28.612Z,11.48
2022-10-17T17:45:56.715Z,9.07
2022-10-17T17:48:24.333Z,12.45
2022-10-17T17:50:51.977Z,11.95
2022-10-17T17:53:19.670Z,11.05
2022-10-17T17:55:47.319Z,11.23
2022-10-17T17:58:16.362Z,9.63
2022-10-17T18:00:43.976Z,10.07
2022-10-17T18:03:11.981Z,12.52
2022-10-17T18:05:41.094Z,12.05
2022-10-17T18:08:08.741Z,11.07
2022-10-17T18:10:36.372Z,13.90
2022-10-17T18:13:04.020Z,15.20
2022-10-17T18:15:32.954Z,11.18
2022-10-17T18:18:01.119Z,12.82
2022-10-17T18:20:28.813Z,20.52
2022-10-17T18:22:59.368Z,12.38
2022-10-17T18:25:29.616Z,9.95
2022-10-17T18:27:57.412Z,9.57
2022-10-17T18:30:27.198Z,12.65
2022-10-17T18:32:57.939Z,12.57
2022-10-17T18:35:25.582Z,11.40
2022-10-17T18:37:56.470Z,16.08
2022-10-17T18:40:24.282Z,13.60
2022-10-17T18:42:51.887Z,7.80
2022-10-17T18:45:19.511Z,7.90
2022-10-17T18:47:47.471Z,10.57
2022-10-17T18:50:16.614Z,10.90
2022-10-17T18:52:44.595Z,13.82
2022-10-17T18:55:12.209Z,10.65
2022-10-17T18:57:39.923Z,8.80
2022-10-17T19:00:08.547Z,13.15
2022-10-17T19:02:38.096Z,9.43
2022-10-17T19:05:06.108Z,12.30
2022-10-17T19:07:35.102Z,9.43
2022-10-17T19:10:02.724Z,16.38
2022-10-17T19:12:30.414Z,10.57
2022-10-17T19:14:58.087Z,9.50
2022-10-17T19:17:25.746Z,13.20
2022-10-17T19:19:55.010Z,12.48
2022-10-17T19:22:22.977Z,15.40
2022-10-17T19:24:51.999Z,10.40
2022-10-17T19:27:20.493Z,13.80
2022-10-17T19:29:48.853Z,12.43
2022-10-17T19:32:19.242Z,21.65
2022-10-17T19:34:50.531Z,15.20
2022-10-17T19:37:18.351Z,13.13
2022-10-17T19:39:45.961Z,11.88
2022-10-17T19:42:14.944Z,13.95
2022-10-17T19:44:42.580Z,12.25
2022-10-17T19:47:10.233Z,12.52
2022-10-17T19:49:37.847Z,13.05
2022-10-17T19:52:05.768Z,12.43
2022-10-17T19:54:33.654Z,13.63
2022-10-17T19:57:01.273Z,17.50
2022-10-17T19:59:30.219Z,10.32
2022-10-17T20:01:58.014Z,12.32
2022-10-17T20:04:26.360Z,12.93
2022-10-17T20:06:55.484Z,10.63
2022-10-17T20:09:25.181Z,13.18
2022-10-17T20:11:52.784Z,9.38
2022-10-17T20:14:20.376Z,11.23
2022-10-17T20:16:52.447Z,8.82
2022-10-17T20:19:20.716Z,12.43
2022-10-17T20:21:48.427Z,11.50
2022-10-17T20:24:16.897Z,12.43
2022-10-17T20:26:44.873Z,9.02
2022-10-17T20:29:13.896Z,11.20
2022-10-17T20:31:42.283Z,10.93
2022-10-17T20:34:12.942Z,13.95
2022-10-17T20:36:40.931Z,11.07
2022-10-17T20:39:09.001Z,11.18
2022-10-17T20:41:36.622Z,11.73
2022-10-17T20:44:04.833Z,14.23
2022-10-17T20:46:37.251Z,10.38
2022-10-17T20:49:06.604Z,11.70
2022-10-17T20:51:35.752Z,11.70
2022-10-17T20:54:03.761Z,11.55
2022-10-17T20:56:34.601Z,8.95
2022-10-17T20:59:03.873Z,11.95
2022-10-17T21:01:32.156Z,10.57
2022-10-17T21:04:06.325Z,11.85
2022-10-17T21:06:47.568Z,11.30
2022-10-17T21:09:15.459Z,10.10
2022-10-17T21:11:43.201Z,11.38
2022-10-17T21:14:11.181Z,10.57
2022-10-17T21:16:39.650Z,13.85
2022-10-17T21:19:07.314Z,10.38
2022-10-17T21:21:35.702Z,12.07
2022-10-17T21:24:07.860Z,11.07
2022-10-17T21:26:36.892Z,12.95
2022-10-17T21:29:05.952Z,11.73
2022-10-17T21:31:34.248Z,15.98
2022-10-17T21:34:02.755Z,12.20
2022-10-17T21:36:30.343Z,10.77
2022-10-17T21:38:58.181Z,10.75
2022-10-17T21:41:28.125Z,11.27
2022-10-17T21:43:56.721Z,16.42
2022-10-17T21:46:24.618Z,12.38
2022-10-17T21:48:52.787Z,13.52
2022-10-17T21:51:22.513Z,16.13
2022-10-17T21:53:50.960Z,11.18
2022-10-17T21:56:19.407Z,11.45
2022-10-17T21:58:48.762Z,11.57
2022-10-17T22:01:17.237Z,12.85
2022-10-17T22:03:46.812Z,11.18
2022-10-17T22:06:38.808Z,11.68
2022-10-17T22:09:03.281Z,11.15
2022-10-17T22:11:32.157Z,11.43
2022-10-17T22:14:02.251Z,12.82
2022-10-17T22:16:29.848Z,14.32
2022-10-17T22:19:01.714Z,13.43
2022-10-17T22:24:01.829Z,15.50
2022-10-17T22:26:30.150Z,13.38
2022-10-17T22:28:58.066Z,14.20
2022-10-17T22:31:27.094Z,15.35
2022-10-17T22:33:54.694Z,12.45
2022-10-17T22:36:22.356Z,11.30
2022-10-17T22:38:50.034Z,13.77
2022-10-17T22:41:17.621Z,12.95
2022-10-17T22:43:45.654Z,13.40
2022-10-17T22:46:14.112Z,18.48
2022-10-17T22:48:43.170Z,15.10
2022-10-17T22:51:10.906Z,11.57
2022-10-17T22:53:38.662Z,12.15
2022-10-17T22:56:07.240Z,16.40
2022-10-17T22:58:35.714Z,13.55
2022-10-17T23:01:03.708Z,15.18
2022-10-17T23:03:31.464Z,14.50
2022-10-17T23:06:00.754Z,13.45
2022-10-17T23:08:28.879Z,14.00
2022-10-17T23:10:56.553Z,15.82
2022-10-17T23:13:24.129Z,20.17
2022-10-17T23:15:52.766Z,17.30
2022-10-17T23:18:20.860Z,17.63
2022-10-17T23:20:48.656Z,16.67
2022-10-17T23:23:18.291Z,17.40
2022-10-17T23:25:45.982Z,13.45
2022-10-17T23:28:13.651Z,14.35
2022-10-17T23:30:43.751Z,16.42
2022-10-17T23:33:11.898Z,14.32
2022-10-17T23:35:39.759Z,16.08
2022-10-17T23:38:07.546Z,14.27
2022-10-17T23:40:36.581Z,16.90
2022-10-17T23:43:04.650Z,15.88
2022-10-17T23:45:34.771Z,18.25
2022-10-17T23:48:05.409Z,20.15
2022-10-17T23:50:33.057Z,16.40
2022-10-17T23:53:00.659Z,17.48
2022-10-17T23:55:28.268Z,16.95
2022-10-17T23:57:57.225Z,19.15
